createdAt,value
2019-02-17T00:00:13.656Z,24.97
2019-02-17T00:02:41.935Z,24.87
2019-02-17T00:05:10.248Z,23.73
2019-02-17T00:07:38.614Z,26.30
2019-02-17T00:10:06.858Z,26.20
2019-02-17T00:12:35.131Z,26.43
2019-02-17T00:15:03.888Z,28.57
2019-02-17T00:17:32.170Z,29.30
2019-02-17T00:20:00.703Z,28.03
2019-02-17T00:22:28.977Z,28.50
2019-02-17T00:24:57.227Z,28.13
2019-02-17T00:27:25.485Z,27.47
2019-02-17T00:29:53.740Z,26.87
2019-02-17T00:32:21.989Z,26.03
2019-02-17T00:34:50.254Z,26.70
2019-02-17T00:37:18.832Z,26.27
2019-02-17T00:39:47.418Z,26.30
2019-02-17T00:42:15.998Z,26.80
2019-02-17T00:44:44.585Z,25.83
2019-02-17T00:47:13.174Z,24.93
2019-02-17T00:49:41.443Z,24.90
2019-02-17T00:52:09.778Z,25.63
2019-02-17T00:54:38.048Z,26.43
2019-02-17T00:57:06.309Z,24.77
2019-02-17T00:59:34.859Z,25.17
2019-02-17T01:02:03.106Z,25.03
2019-02-17T01:04:31.387Z,25.60
2019-02-17T01:06:59.888Z,23.37
2019-02-17T01:09:28.465Z,24.27
2019-02-17T01:11:56.709Z,26.00
2019-02-17T01:14:24.994Z,24.90
2019-02-17T01:16:53.517Z,26.60
2019-02-17T01:19:21.797Z,26.63
2019-02-17T01:21:50.054Z,24.90
2019-02-17T01:24:18.343Z,24.90
2019-02-17T01:26:46.592Z,23.53
2019-02-17T01:29:20.366Z,24.23
2019-02-17T01:31:44.830Z,23.10
2019-02-17T01:34:13.117Z,23.73
2019-02-17T01:36:41.372Z,24.27
2019-02-17T01:39:09.638Z,24.97
2019-02-17T01:41:38.236Z,24.50
2019-02-17T01:44:06.519Z,23.07
2019-02-17T01:46:34.780Z,24.23
2019-02-17T01:49:03.122Z,25.13
2019-02-17T01:51:31.370Z,24.73
2019-02-17T01:53:59.650Z,26.63
2019-02-17T01:56:27.889Z,24.93
2019-02-17T01:58:56.163Z,24.40
2019-02-17T02:01:24.434Z,24.77
2019-02-17T02:03:52.714Z,25.13
2019-02-17T02:06:21.064Z,24.47
2019-02-17T02:08:49.651Z,25.40
2019-02-17T02:11:18.245Z,26.03
2019-02-17T02:13:46.485Z,26.33
2019-02-17T02:16:14.765Z,25.77
2019-02-17T02:18:43.018Z,25.67
2019-02-17T02:21:11.296Z,25.77
2019-02-17T02:23:39.540Z,25.13
2019-02-17T02:26:07.814Z,25.27
2019-02-17T02:28:36.372Z,26.23
2019-02-17T02:31:04.650Z,25.73
2019-02-17T02:33:33.233Z,25.87
2019-02-17T02:36:01.540Z,26.23
2019-02-17T02:38:30.093Z,24.77
2019-02-17T02:40:58.366Z,23.87
2019-02-17T02:43:26.613Z,25.63
2019-02-17T02:45:55.243Z,25.80
2019-02-17T02:48:23.524Z,24.43
2019-02-17T02:50:53.225Z,23.97
2019-02-17T02:53:21.719Z,24.83
2019-02-17T02:55:49.994Z,26.00
2019-02-17T02:58:18.253Z,24.27
2019-02-17T03:00:46.522Z,24.67
2019-02-17T03:03:14.779Z,24.73
2019-02-17T03:05:45.040Z,24.70
2019-02-17T03:08:13.306Z,24.30
2019-02-17T03:10:41.622Z,25.20
2019-02-17T03:13:10.180Z,24.13
2019-02-17T03:15:38.749Z,24.33
2019-02-17T03:18:07.004Z,24.77
2019-02-17T03:20:35.339Z,23.63
2019-02-17T03:23:03.608Z,23.03
2019-02-17T03:25:32.114Z,24.00
2019-02-17T03:28:00.388Z,24.43
2019-02-17T03:30:28.662Z,23.80
2019-02-17T03:32:56.927Z,22.80
2019-02-17T03:35:25.192Z,23.37
2019-02-17T03:37:53.431Z,23.47
2019-02-17T03:40:21.694Z,24.10
2019-02-17T03:42:49.962Z,22.93
2019-02-17T03:45:18.221Z,23.10
2019-02-17T03:47:46.733Z,22.07
2019-02-17T03:50:15.253Z,23.97
2019-02-17T03:52:43.505Z,23.93
2019-02-17T03:55:11.788Z,23.53
2019-02-17T03:57:40.040Z,24.13
2019-02-17T04:00:16.479Z,22.40
2019-02-17T04:02:38.777Z,23.17
2019-02-17T04:05:07.250Z,23.30
2019-02-17T04:07:35.536Z,24.13
2019-02-17T04:10:04.091Z,23.63
2019-02-17T04:12:32.403Z,23.87
2019-02-17T04:15:01.056Z,23.70
2019-02-17T04:17:29.659Z,23.37
2019-02-17T04:19:57.906Z,23.33
2019-02-17T04:22:26.538Z,23.97
2019-02-17T04:24:55.174Z,22.73
2019-02-17T04:27:23.442Z,23.03
2019-02-17T04:29:52.047Z,22.70
2019-02-17T04:32:20.624Z,22.47
2019-02-17T04:34:48.895Z,24.27
2019-02-17T04:37:17.142Z,23.70
2019-02-17T04:39:45.754Z,24.90
2019-02-17T04:42:14.341Z,23.13
2019-02-17T04:44:43.020Z,22.77
2019-02-17T04:47:11.271Z,22.37
2019-02-17T04:49:39.548Z,23.60
2019-02-17T04:52:07.786Z,23.10
2019-02-17T04:54:36.073Z,21.77
2019-02-17T04:57:04.393Z,22.37
2019-02-17T04:59:32.988Z,22.27
2019-02-17T05:02:01.254Z,22.63
2019-02-17T05:04:29.531Z,21.47
2019-02-17T05:06:58.482Z,20.80
2019-02-17T05:09:26.753Z,20.50
2019-02-17T05:11:55.005Z,20.87
2019-02-17T05:14:23.269Z,20.80
2019-02-17T05:16:51.513Z,20.67
2019-02-17T05:19:20.125Z,21.60
2019-02-17T05:21:48.381Z,19.93
2019-02-17T05:24:16.665Z,21.17
2019-02-17T05:26:44.947Z,20.77
2019-02-17T05:29:13.235Z,22.33
2019-02-17T05:31:41.482Z,21.67
2019-02-17T05:34:09.758Z,19.90
2019-02-17T05:36:38.067Z,21.37
2019-02-17T05:39:06.512Z,22.83
2019-02-17T05:41:34.764Z,22.93
2019-02-17T05:44:03.389Z,22.03
2019-02-17T05:46:31.981Z,23.07
2019-02-17T05:49:00.308Z,23.03
2019-02-17T05:51:28.602Z,21.70
2019-02-17T05:53:57.232Z,21.43
2019-02-17T05:56:25.475Z,20.83
2019-02-17T05:58:53.720Z,21.50
2019-02-17T06:01:22.001Z,21.13
2019-02-17T06:03:50.256Z,20.73
2019-02-17T06:06:18.572Z,21.07
2019-02-17T06:08:46.888Z,21.03
2019-02-17T06:11:15.161Z,21.47
2019-02-17T06:13:43.442Z,20.57
2019-02-17T06:16:11.739Z,20.03
2019-02-17T06:18:40.067Z,20.40
2019-02-17T06:21:08.361Z,20.80
2019-02-17T06:23:36.619Z,19.43
2019-02-17T06:26:05.221Z,19.20
2019-02-17T06:28:33.499Z,19.57
2019-02-17T06:31:01.779Z,20.50
2019-02-17T06:33:30.054Z,18.73
2019-02-17T06:35:58.401Z,21.60
2019-02-17T06:38:26.638Z,20.17
2019-02-17T06:40:54.932Z,19.60
2019-02-17T06:43:23.451Z,20.67
2019-02-17T06:45:52.460Z,20.10
2019-02-17T06:48:20.730Z,20.87
2019-02-17T06:50:49.009Z,21.73
2019-02-17T06:53:17.266Z,21.40
2019-02-17T06:55:50.316Z,21.97
2019-02-17T06:58:18.574Z,21.10
2019-02-17T07:00:47.117Z,21.40
2019-02-17T07:03:15.416Z,22.17
2019-02-17T07:06:03.575Z,20.87
2019-02-17T07:08:32.144Z,21.07
2019-02-17T07:11:00.464Z,21.47
2019-02-17T07:13:28.723Z,21.03
2019-02-17T07:15:57.001Z,22.57
2019-02-17T07:18:25.253Z,21.33
2019-02-17T07:20:53.525Z,21.33
2019-02-17T07:23:22.184Z,21.30
2019-02-17T07:25:50.467Z,21.30
2019-02-17T07:28:18.728Z,21.10
2019-02-17T07:30:47.014Z,20.77
2019-02-17T07:33:15.353Z,21.17
2019-02-17T07:35:43.826Z,21.47
2019-02-17T07:38:12.411Z,21.70
2019-02-17T07:40:40.939Z,20.77
2019-02-17T07:43:09.265Z,22.33
2019-02-17T07:45:37.824Z,21.70
2019-02-17T07:48:06.138Z,22.03
2019-02-17T07:50:34.439Z,21.80
2019-02-17T07:53:02.677Z,22.13
2019-02-17T07:55:30.965Z,21.83
2019-02-17T07:57:59.220Z,22.13
2019-02-17T08:00:27.477Z,20.67
2019-02-17T08:02:56.061Z,21.57
2019-02-17T08:05:24.621Z,21.87
2019-02-17T08:07:52.921Z,21.57
2019-02-17T08:10:21.491Z,22.10
2019-02-17T08:12:49.790Z,22.03
2019-02-17T08:15:18.036Z,22.10
2019-02-17T08:17:46.336Z,21.10
2019-02-17T08:20:14.620Z,21.83
2019-02-17T08:22:42.906Z,21.67
2019-02-17T08:25:19.346Z,20.83
2019-02-17T08:27:41.213Z,23.17
2019-02-17T08:30:13.483Z,23.27
2019-02-17T08:32:44.045Z,21.33
2019-02-17T08:35:12.439Z,22.90
2019-02-17T08:37:40.765Z,23.17
2019-02-17T08:40:10.213Z,23.27
2019-02-17T08:42:38.517Z,23.80
2019-02-17T08:45:08.808Z,23.53
2019-02-17T08:47:37.087Z,22.80
2019-02-17T08:50:08.968Z,23.93
2019-02-17T08:52:37.327Z,22.80
2019-02-17T08:55:08.174Z,23.43
2019-02-17T08:57:38.074Z,24.37
2019-02-17T09:00:09.893Z,23.57
2019-02-17T09:02:38.198Z,23.27
2019-02-17T09:05:06.448Z,23.27
2019-02-17T09:07:35.388Z,22.23
2019-02-17T09:10:08.354Z,23.53
2019-02-17T09:12:36.748Z,22.73
2019-02-17T09:15:08.237Z,22.63
2019-02-17T09:17:36.518Z,22.60
2019-02-17T09:20:07.932Z,22.67
2019-02-17T09:22:36.387Z,24.70
2019-02-17T09:25:07.244Z,23.43
2019-02-17T09:27:35.538Z,22.00
2019-02-17T09:30:04.925Z,22.87
2019-02-17T09:32:33.211Z,22.97
2019-02-17T09:35:01.791Z,23.50
2019-02-17T09:37:30.113Z,21.77
2019-02-17T09:39:58.365Z,22.97
2019-02-17T09:42:26.748Z,24.50
2019-02-17T09:44:55.020Z,23.67
2019-02-17T09:47:23.332Z,24.27
2019-02-17T09:49:51.600Z,23.70
2019-02-17T09:52:20.275Z,24.73
2019-02-17T09:54:48.564Z,22.87
2019-02-17T09:57:16.848Z,22.63
2019-02-17T09:59:45.127Z,23.10
2019-02-17T10:02:13.424Z,26.90
2019-02-17T10:04:41.689Z,25.87
2019-02-17T10:07:09.983Z,23.63
2019-02-17T10:09:38.361Z,23.13
2019-02-17T10:12:06.664Z,24.70
2019-02-17T10:14:34.903Z,23.40
2019-02-17T10:17:03.194Z,23.63
2019-02-17T10:19:31.465Z,23.37
2019-02-17T10:21:59.749Z,23.47
2019-02-17T10:24:27.996Z,23.27
2019-02-17T10:26:56.606Z,24.57
2019-02-17T10:29:24.861Z,22.83
2019-02-17T10:31:53.098Z,23.20
2019-02-17T10:34:21.407Z,24.10
2019-02-17T10:36:49.672Z,23.33
2019-02-17T10:39:17.965Z,23.67
2019-02-17T10:41:46.209Z,23.27
2019-02-17T10:44:14.489Z,24.07
2019-02-17T10:46:43.013Z,23.30
2019-02-17T10:49:11.596Z,24.23
2019-02-17T10:51:39.863Z,24.37
2019-02-17T10:54:08.206Z,23.87
2019-02-17T10:56:36.515Z,23.80
2019-02-17T10:59:04.815Z,23.70
2019-02-17T11:01:33.396Z,23.70
2019-02-17T11:04:03.927Z,22.53
2019-02-17T11:06:32.525Z,23.13
2019-02-17T11:09:01.401Z,23.00
2019-02-17T11:11:29.969Z,23.63
2019-02-17T11:13:58.245Z,23.03
2019-02-17T11:16:26.504Z,22.73
2019-02-17T11:18:55.130Z,23.77
2019-02-17T11:21:23.689Z,23.50
2019-02-17T11:23:51.995Z,23.53
2019-02-17T11:26:20.236Z,23.83
2019-02-17T11:28:48.606Z,23.80
2019-02-17T11:31:16.879Z,23.23
2019-02-17T11:33:45.168Z,23.43
2019-02-17T11:36:13.499Z,24.47
2019-02-17T11:38:41.782Z,23.70
2019-02-17T11:41:12.416Z,24.20
2019-02-17T11:43:40.141Z,25.10
2019-02-17T11:46:08.743Z,23.53
2019-02-17T11:48:37.323Z,24.73
2019-02-17T11:51:05.895Z,25.13
2019-02-17T11:53:34.210Z,41.60
2019-02-17T11:56:02.486Z,29.53
2019-02-17T11:58:30.897Z,25.73
2019-02-17T12:00:59.169Z,24.27
2019-02-17T12:03:27.418Z,24.30
2019-02-17T12:05:56.038Z,26.00
2019-02-17T12:08:24.623Z,24.90
2019-02-17T12:11:01.650Z,25.37
2019-02-17T12:13:29.909Z,25.70
2019-02-17T12:15:58.225Z,25.50
2019-02-17T12:18:26.533Z,25.73
2019-02-17T12:21:13.035Z,26.83
2019-02-17T12:23:42.961Z,25.60
2019-02-17T12:26:13.014Z,25.67
2019-02-17T12:28:43.175Z,25.23
2019-02-17T12:31:13.185Z,26.00
2019-02-17T12:33:41.515Z,25.73
2019-02-17T12:36:10.065Z,25.10
2019-02-17T12:38:38.665Z,28.25
2019-02-17T12:41:07.033Z,26.33
2019-02-17T12:43:35.286Z,27.33
2019-02-17T12:46:04.082Z,25.63
2019-02-17T12:48:32.368Z,25.07
2019-02-17T12:51:00.739Z,25.97
2019-02-17T12:53:28.997Z,26.53
2019-02-17T12:55:57.585Z,26.27
2019-02-17T12:58:30.106Z,26.53
2019-02-17T13:00:56.283Z,26.70
2019-02-17T13:03:28.573Z,25.57
2019-02-17T13:05:54.996Z,24.87
2019-02-17T13:08:23.342Z,25.50
2019-02-17T13:10:52.101Z,25.37
2019-02-17T13:13:20.345Z,24.40
2019-02-17T13:15:48.655Z,24.13
2019-02-17T13:18:17.434Z,23.07
2019-02-17T13:20:46.001Z,25.07
2019-02-17T13:23:14.495Z,23.83
2019-02-17T13:25:42.841Z,22.87
2019-02-17T13:28:14.229Z,24.30
2019-02-17T13:30:42.611Z,24.17
2019-02-17T13:33:11.048Z,24.97
2019-02-17T13:35:39.755Z,24.53
2019-02-17T13:38:08.026Z,23.50
2019-02-17T13:40:36.323Z,23.47
2019-02-17T13:43:05.095Z,23.47
2019-02-17T13:45:33.411Z,23.33
2019-02-17T13:48:01.740Z,26.90
2019-02-17T13:50:30.076Z,24.47
2019-02-17T13:52:58.390Z,23.00
2019-02-17T13:55:26.742Z,21.00
2019-02-17T13:57:56.016Z,23.17
2019-02-17T14:00:24.452Z,24.33
2019-02-17T14:02:52.774Z,24.73
2019-02-17T14:05:21.487Z,24.67
2019-02-17T14:07:49.741Z,24.63
2019-02-17T14:10:18.022Z,24.83
2019-02-17T14:12:46.909Z,24.50
2019-02-17T14:15:20.073Z,24.13
2019-02-17T14:17:48.507Z,22.70
2019-02-17T14:20:17.148Z,23.60
2019-02-17T14:22:45.467Z,23.60
2019-02-17T14:25:14.095Z,24.97
2019-02-17T14:27:42.830Z,24.83
2019-02-17T14:30:14.735Z,23.40
2019-02-17T14:32:43.230Z,21.40
2019-02-17T14:35:11.668Z,20.53
2019-02-17T14:37:40.246Z,21.53
2019-02-17T14:40:15.016Z,21.10
2019-02-17T14:42:43.621Z,20.83
2019-02-17T14:45:14.090Z,21.07
2019-02-17T14:47:44.080Z,21.27
2019-02-17T14:50:14.061Z,20.00
2019-02-17T14:52:42.932Z,20.13
2019-02-17T14:55:12.189Z,21.10
2019-02-17T14:57:40.494Z,20.50
2019-02-17T15:00:13.843Z,20.47
2019-02-17T15:02:42.191Z,19.63
2019-02-17T15:05:10.717Z,20.17
2019-02-17T15:07:39.004Z,20.67
2019-02-17T15:10:11.902Z,21.07
2019-02-17T15:12:40.503Z,20.40
2019-02-17T15:15:11.661Z,20.83
2019-02-17T15:17:39.960Z,20.80
2019-02-17T15:20:11.997Z,19.83
2019-02-17T15:22:40.300Z,20.23
2019-02-17T15:25:10.793Z,20.00
2019-02-17T15:27:39.129Z,31.77
2019-02-17T15:30:10.906Z,20.60
2019-02-17T15:32:39.249Z,21.70
2019-02-17T15:35:07.506Z,20.10
2019-02-17T15:37:35.828Z,20.90
2019-02-17T15:40:09.474Z,19.60
2019-02-17T15:42:37.777Z,19.67
2019-02-17T15:45:09.298Z,20.23
2019-02-17T15:47:37.592Z,20.07
2019-02-17T15:50:10.156Z,19.60
2019-02-17T15:52:38.475Z,20.83
2019-02-17T15:55:09.828Z,20.57
2019-02-17T15:57:38.135Z,21.27
2019-02-17T16:00:12.195Z,19.90
2019-02-17T16:02:40.504Z,20.03
2019-02-17T16:05:09.405Z,21.17
2019-02-17T16:07:37.989Z,21.00
2019-02-17T16:10:11.127Z,19.73
2019-02-17T16:12:39.470Z,21.07
2019-02-17T16:15:10.933Z,21.10
2019-02-17T16:17:39.253Z,21.20
2019-02-17T16:20:10.449Z,21.50
2019-02-17T16:22:39.037Z,20.07
2019-02-17T16:25:08.890Z,20.27
2019-02-17T16:27:37.226Z,21.00
2019-02-17T16:30:17.918Z,21.37
2019-02-17T16:32:46.250Z,21.20
2019-02-17T16:35:14.527Z,21.20
2019-02-17T16:37:42.911Z,21.10
2019-02-17T16:40:13.553Z,22.03
2019-02-17T16:42:41.855Z,20.93
2019-02-17T16:45:14.450Z,20.70
2019-02-17T16:47:43.446Z,20.80
2019-02-17T16:50:15.161Z,20.67
2019-02-17T16:52:43.498Z,21.20
2019-02-17T16:55:11.741Z,19.53
2019-02-17T16:57:40.399Z,21.67
2019-02-17T17:00:12.101Z,20.00
2019-02-17T17:02:40.389Z,20.83
2019-02-17T17:05:10.582Z,21.27
2019-02-17T17:07:39.249Z,21.80
2019-02-17T17:10:07.823Z,22.73
2019-02-17T17:12:36.119Z,20.97
2019-02-17T17:15:05.705Z,21.63
2019-02-17T17:17:34.553Z,21.60
2019-02-17T17:20:03.338Z,22.90
2019-02-17T17:22:31.980Z,23.80
2019-02-17T17:25:00.677Z,23.00
2019-02-17T17:27:28.978Z,22.80
2019-02-17T17:29:57.233Z,23.97
2019-02-17T17:32:25.787Z,25.17
2019-02-17T17:34:58.800Z,24.17
2019-02-17T17:37:24.086Z,23.70
2019-02-17T17:39:52.336Z,23.23
2019-02-17T17:42:20.584Z,24.73
2019-02-17T17:44:49.144Z,25.13
2019-02-17T17:47:17.442Z,25.70
2019-02-17T17:49:46.039Z,25.13
2019-02-17T17:52:14.610Z,26.13
2019-02-17T17:54:42.974Z,24.30
2019-02-17T17:57:11.488Z,25.60
2019-02-17T17:59:39.790Z,24.40
2019-02-17T18:02:08.123Z,26.20
2019-02-17T18:04:36.417Z,25.50
2019-02-17T18:07:04.672Z,24.83
2019-02-17T18:09:33.101Z,24.47
2019-02-17T18:12:01.387Z,24.63
2019-02-17T18:14:29.772Z,24.17
2019-02-17T18:16:58.027Z,23.63
2019-02-17T18:19:26.593Z,24.50
2019-02-17T18:21:54.890Z,24.93
2019-02-17T18:24:23.259Z,24.23
2019-02-17T18:26:51.544Z,24.23
2019-02-17T18:29:20.233Z,23.77
2019-02-17T18:31:48.494Z,25.23
2019-02-17T18:34:16.883Z,25.37
2019-02-17T18:36:45.139Z,27.33
2019-02-17T18:39:13.433Z,27.63
2019-02-17T18:41:41.777Z,25.33
2019-02-17T18:44:10.131Z,26.27
2019-02-17T18:46:38.445Z,26.57
2019-02-17T18:49:06.753Z,24.63
2019-02-17T18:51:35.001Z,25.77
2019-02-17T18:54:03.301Z,26.00
2019-02-17T18:56:31.637Z,25.43
2019-02-17T18:59:00.136Z,25.70
2019-02-17T19:01:28.474Z,25.57
2019-02-17T19:03:56.797Z,26.53
2019-02-17T19:06:25.111Z,29.23
2019-02-17T19:08:53.725Z,24.73
2019-02-17T19:11:22.047Z,26.37
2019-02-17T19:13:50.332Z,28.50
2019-02-17T19:16:18.835Z,28.40
2019-02-17T19:18:47.210Z,26.63
2019-02-17T19:21:15.477Z,26.73
2019-02-17T19:23:43.786Z,25.80
2019-02-17T19:26:12.026Z,27.20
2019-02-17T19:28:40.320Z,26.43
2019-02-17T19:31:08.834Z,26.87
2019-02-17T19:33:37.410Z,25.83
2019-02-17T19:36:06.005Z,27.40
2019-02-17T19:38:34.304Z,27.43
2019-02-17T19:41:02.592Z,25.90
2019-02-17T19:43:30.924Z,27.57
2019-02-17T19:45:59.464Z,26.33
2019-02-17T19:48:27.725Z,24.83
2019-02-17T19:50:56.334Z,24.43
2019-02-17T19:53:24.604Z,25.80
2019-02-17T19:55:53.227Z,24.60
2019-02-17T19:58:21.893Z,25.67
2019-02-17T20:00:50.450Z,27.43
2019-02-17T20:03:23.938Z,28.37
2019-02-17T20:05:54.190Z,26.53
2019-02-17T20:08:22.446Z,26.13
2019-02-17T20:10:50.816Z,25.37
2019-02-17T20:13:19.318Z,26.50
2019-02-17T20:15:47.706Z,25.63
2019-02-17T20:18:16.220Z,25.87
2019-02-17T20:20:44.899Z,26.03
2019-02-17T20:23:13.397Z,26.57
2019-02-17T20:25:41.697Z,27.60
2019-02-17T20:28:09.967Z,27.97
2019-02-17T20:30:38.526Z,27.13
2019-02-17T20:33:06.845Z,27.73
2019-02-17T20:35:35.438Z,27.13
2019-02-17T20:38:05.453Z,27.13
2019-02-17T20:40:33.817Z,26.70
2019-02-17T20:43:02.190Z,26.90
2019-02-17T20:45:30.799Z,29.80
2019-02-17T20:47:59.047Z,29.20
2019-02-17T20:50:27.638Z,26.80
2019-02-17T20:52:55.881Z,27.17
2019-02-17T20:55:24.401Z,30.10
2019-02-17T20:57:52.782Z,26.90
2019-02-17T21:00:23.029Z,26.10
2019-02-17T21:02:51.354Z,25.10
2019-02-17T21:05:19.672Z,26.47
2019-02-17T21:07:48.260Z,26.27
2019-02-17T21:10:16.654Z,25.20
2019-02-17T21:12:45.039Z,25.43
2019-02-17T21:15:14.829Z,26.83
2019-02-17T21:17:43.069Z,25.90
2019-02-17T21:20:11.609Z,25.97
2019-02-17T21:22:39.857Z,25.90
2019-02-17T21:25:12.891Z,26.87
2019-02-17T21:27:41.284Z,25.00
2019-02-17T21:30:17.990Z,25.17
2019-02-17T21:32:46.804Z,25.63
2019-02-17T21:35:16.243Z,25.07
2019-02-17T21:37:44.559Z,24.80
2019-02-17T21:40:13.351Z,24.40
2019-02-17T21:42:41.952Z,24.40
2019-02-17T21:45:11.469Z,24.00
2019-02-17T21:47:39.743Z,25.17
2019-02-17T21:50:11.379Z,23.53
2019-02-17T21:52:41.783Z,24.93
2019-02-17T21:55:13.932Z,24.37
2019-02-17T21:57:42.350Z,24.70
2019-02-17T22:00:19.160Z,23.83
2019-02-17T22:02:47.767Z,23.53
2019-02-17T22:05:16.134Z,24.50
2019-02-17T22:07:44.617Z,25.10
2019-02-17T22:10:14.782Z,24.83
2019-02-17T22:12:43.524Z,23.47
2019-02-17T22:15:17.892Z,23.90
2019-02-17T22:17:46.939Z,24.43
2019-02-17T22:20:15.285Z,25.80
2019-02-17T22:22:43.601Z,25.93
2019-02-17T22:25:11.999Z,24.80
2019-02-17T22:27:40.516Z,25.23
2019-02-17T22:30:15.379Z,25.70
2019-02-17T22:32:43.773Z,23.70
2019-02-17T22:35:12.419Z,24.80
2019-02-17T22:37:40.744Z,23.03
2019-02-17T22:40:11.081Z,23.67
2019-02-17T22:42:39.346Z,25.43
2019-02-17T22:45:10.087Z,24.03
2019-02-17T22:47:38.692Z,23.07
2019-02-17T22:50:13.089Z,23.27
2019-02-17T22:52:41.366Z,22.47
2019-02-17T22:55:11.622Z,24.10
2019-02-17T22:57:39.966Z,23.30
2019-02-17T23:00:24.746Z,24.20
2019-02-17T23:02:53.273Z,23.77
2019-02-17T23:05:21.612Z,23.80
2019-02-17T23:07:49.897Z,24.03
2019-02-17T23:10:18.405Z,23.60
2019-02-17T23:12:46.699Z,23.60
2019-02-17T23:15:14.959Z,23.77
2019-02-17T23:17:43.225Z,23.53
2019-02-17T23:20:12.343Z,23.93
2019-02-17T23:22:40.620Z,23.90
2019-02-17T23:25:09.116Z,23.20
2019-02-17T23:27:37.401Z,23.27
2019-02-17T23:30:08.649Z,24.13
2019-02-17T23:32:36.950Z,23.27
2019-02-17T23:35:05.519Z,23.27
2019-02-17T23:37:34.035Z,24.87
2019-02-17T23:40:02.353Z,24.47
2019-02-17T23:42:30.641Z,24.80
2019-02-17T23:44:58.886Z,23.93
2019-02-17T23:47:27.181Z,24.17
2019-02-17T23:49:55.490Z,24.80
2019-02-17T23:52:23.842Z,24.83
2019-02-17T23:54:52.089Z,23.93
2019-02-17T23:57:20.382Z,22.80
2019-02-17T23:59:48.635Z,23.30
